Time;durP1;ratioP1;P1;durP2;ratioP2;P2;SDS_P1;SDS_P2;PMS_P1;PMS_P2;Temp;Humidity;BMP_temperature;BMP_pressure;BME280_temperature;BME280_humidity;BME280_pressure;Samples;Min_cycle;Max_cycle;Signal;HPM_P1;HPM_P2
2021/08/31 00:01:31;;;;;;;1.38;1.08;;;23.60;57.50;;;;;;6219207;28;20022;-70
2021/08/31 00:04:32;;;;;;;1.05;0.95;;;23.60;57.50;;;;;;6229183;28;20022;-70
2021/08/31 00:07:32;;;;;;;1.08;0.95;;;23.60;57.50;;;;;;6244972;28;20053;-70
2021/08/31 00:10:34;;;;;;;1.63;0.90;;;23.60;57.50;;;;;;6244590;28;20390;-70
2021/08/31 00:13:34;;;;;;;1.20;1.10;;;23.60;57.50;;;;;;6240677;28;20014;-70
2021/08/31 00:16:35;;;;;;;1.30;1.00;;;23.60;57.50;;;;;;6242581;28;20060;-70
2021/08/31 00:19:36;;;;;;;0.93;0.80;;;23.60;57.50;;;;;;6243368;28;20025;-70
2021/08/31 00:22:37;;;;;;;1.63;1.20;;;23.60;57.60;;;;;;6243528;28;20126;-70
2021/08/31 00:25:37;;;;;;;1.20;1.08;;;23.60;57.50;;;;;;6244463;28;20044;-70
2021/08/31 00:28:38;;;;;;;1.00;0.90;;;23.60;57.60;;;;;;6244155;28;20065;-70
2021/08/31 00:31:38;;;;;;;1.23;1.02;;;23.60;57.50;;;;;;6244261;28;20029;-70
2021/08/31 00:34:39;;;;;;;0.95;0.85;;;23.60;57.50;;;;;;6244188;28;20025;-71
2021/08/31 00:37:40;;;;;;;1.35;1.05;;;23.60;57.60;;;;;;6244112;28;20077;-70
2021/08/31 00:40:41;;;;;;;0.73;0.73;;;23.60;57.50;;;;;;6243826;28;20026;-70
2021/08/31 00:43:46;;;;;;;1.10;1.00;;;23.60;57.50;;;;;;6244235;28;20037;-70
2021/08/31 00:46:58;;;;;;;1.13;0.93;;;23.60;57.50;;;;;;6243647;28;20025;-70
2021/08/31 00:49:58;;;;;;;1.20;1.00;;;23.60;57.50;;;;;;6243845;28;20029;-70
2021/08/31 00:52:59;;;;;;;1.10;0.77;;;23.60;57.50;;;;;;6243408;28;20029;-70
2021/08/31 00:55:59;;;;;;;1.30;1.13;;;23.60;57.50;;;;;;6243692;28;20368;-70
2021/08/31 00:59:00;;;;;;;1.17;0.98;;;23.60;57.50;;;;;;6243656;28;20075;-70
2021/08/31 01:02:01;;;;;;;1.42;1.23;;;23.60;57.50;;;;;;6243220;28;20036;-70
2021/08/31 01:05:03;;;;;;;1.20;1.08;;;23.60;57.50;;;;;;6243533;28;20032;-71
2021/08/31 01:08:05;;;;;;;1.13;1.02;;;23.60;57.50;;;;;;6241840;28;20033;-70
2021/08/31 01:11:06;;;;;;;1.40;1.10;;;23.60;57.50;;;;;;6243302;28;20017;-71
2021/08/31 01:14:08;;;;;;;1.13;1.02;;;23.60;57.50;;;;;;6243401;28;20029;-70
2021/08/31 01:17:09;;;;;;;1.55;1.00;;;23.60;57.50;;;;;;6243349;28;20109;-70
2021/08/31 01:20:10;;;;;;;0.98;0.88;;;23.60;57.50;;;;;;6241448;28;20035;-70
2021/08/31 01:23:12;;;;;;;1.58;1.25;;;23.60;57.50;;;;;;6243021;28;20510;-70
2021/08/31 01:26:14;;;;;;;1.42;1.05;;;23.60;57.50;;;;;;6242108;28;20022;-70
2021/08/31 01:29:14;;;;;;;1.00;0.90;;;23.60;57.50;;;;;;6242968;28;20028;-71
2021/08/31 01:32:15;;;;;;;1.10;1.00;;;23.60;57.50;;;;;;6242969;28;20026;-70
2021/08/31 01:35:15;;;;;;;1.38;1.10;;;23.60;57.40;;;;;;6242644;28;20026;-70
2021/08/31 01:38:16;;;;;;;1.40;1.00;;;23.60;57.50;;;;;;6242760;28;20034;-70
2021/08/31 01:41:17;;;;;;;1.83;1.20;;;23.60;57.50;;;;;;6242859;28;20037;-70
2021/08/31 01:44:18;;;;;;;1.20;1.10;;;23.60;57.40;;;;;;6242889;28;20029;-71
2021/08/31 01:47:18;;;;;;;1.58;1.00;;;23.60;57.50;;;;;;6243146;28;20535;-71
2021/08/31 01:50:19;;;;;;;1.25;1.08;;;23.60;57.50;;;;;;6242511;28;20103;-71
2021/08/31 01:53:19;;;;;;;1.20;0.90;;;23.60;57.50;;;;;;6242404;28;20466;-70
2021/08/31 01:56:20;;;;;;;1.42;1.02;;;23.60;57.40;;;;;;6242339;28;20071;-71
2021/08/31 01:59:20;;;;;;;1.25;1.10;;;23.60;57.50;;;;;;6242344;28;20033;-70
2021/08/31 02:02:22;;;;;;;1.88;1.23;;;23.60;57.40;;;;;;6240629;28;20030;-71
2021/08/31 02:05:22;;;;;;;2.17;1.13;;;23.60;57.40;;;;;;6241425;28;20033;-71
2021/08/31 02:08:23;;;;;;;1.85;1.00;;;23.60;57.40;;;;;;6242091;28;20051;-70
2021/08/31 02:11:24;;;;;;;1.23;0.90;;;23.60;57.30;;;;;;6241474;28;20017;-70
2021/08/31 02:14:25;;;;;;;1.15;1.05;;;23.60;57.30;;;;;;6241252;28;20513;-71
2021/08/31 02:17:25;;;;;;;1.10;1.00;;;23.60;57.30;;;;;;6241865;28;20189;-70
2021/08/31 02:20:26;;;;;;;2.63;1.10;;;23.60;57.50;;;;;;6241905;28;20028;-70
2021/08/31 02:23:26;;;;;;;1.75;1.05;;;23.60;57.40;;;;;;6241909;28;20064;-71
2021/08/31 02:26:30;;;;;;;1.00;0.90;;;23.60;57.40;;;;;;6241638;28;20033;-70
2021/08/31 02:29:31;;;;;;;1.30;0.83;;;23.60;57.40;;;;;;6242214;28;20495;-70
2021/08/31 02:32:32;;;;;;;2.08;1.10;;;23.60;57.40;;;;;;6240299;28;20079;-71
2021/08/31 02:35:33;;;;;;;0.98;0.82;;;23.60;57.40;;;;;;6240289;28;20049;-70
2021/08/31 02:38:33;;;;;;;1.30;1.20;;;23.60;57.40;;;;;;6241226;28;20038;-70
2021/08/31 02:41:34;;;;;;;1.17;1.05;;;23.60;57.50;;;;;;6241205;28;20041;-70
2021/08/31 02:44:34;;;;;;;1.15;0.90;;;23.60;57.50;;;;;;6240191;28;20032;-70
2021/08/31 02:47:35;;;;;;;1.25;1.10;;;23.60;57.50;;;;;;6241186;28;20032;-70
2021/08/31 02:50:36;;;;;;;1.42;1.13;;;23.60;57.40;;;;;;6239774;28;20056;-71
2021/08/31 02:53:36;;;;;;;1.70;1.02;;;23.60;57.40;;;;;;6241066;28;20033;-70
2021/08/31 02:56:37;;;;;;;1.58;1.10;;;23.60;57.40;;;;;;6240742;28;20063;-70
2021/08/31 02:59:37;;;;;;;1.73;1.20;;;23.60;57.40;;;;;;6241331;28;20037;-70
2021/08/31 03:02:38;;;;;;;1.15;1.00;;;23.60;57.30;;;;;;6240962;28;20086;-70
2021/08/31 03:05:38;;;;;;;1.17;1.08;;;23.60;57.30;;;;;;6241658;28;20491;-71
2021/08/31 03:08:39;;;;;;;1.33;1.10;;;23.60;57.30;;;;;;6241253;28;20333;-70
2021/08/31 03:11:40;;;;;;;1.10;1.00;;;23.60;57.30;;;;;;6239614;28;20120;-71
2021/08/31 03:14:41;;;;;;;1.00;0.90;;;23.60;57.40;;;;;;6228788;28;20018;-70
2021/08/31 03:17:43;;;;;;;1.38;0.95;;;23.60;57.30;;;;;;6224203;28;20108;-71
2021/08/31 03:20:43;;;;;;;1.33;1.10;;;23.60;58.10;;;;;;6246156;28;20066;-71
2021/08/31 03:23:44;;;;;;;1.13;1.00;;;23.60;57.40;;;;;;6245924;28;20038;-71
2021/08/31 03:26:44;;;;;;;1.10;1.00;;;23.60;57.30;;;;;;6246137;28;20079;-70
2021/08/31 03:29:45;;;;;;;1.10;1.00;;;23.60;57.30;;;;;;6245787;28;20431;-71
2021/08/31 03:32:46;;;;;;;1.30;1.20;;;23.60;57.30;;;;;;6245948;28;20033;-70
2021/08/31 03:35:46;;;;;;;0.95;0.88;;;23.60;57.30;;;;;;6246274;28;20026;-70
2021/08/31 03:38:47;;;;;;;1.23;1.10;;;23.60;57.30;;;;;;6245188;28;20083;-70
2021/08/31 03:41:47;;;;;;;1.50;1.10;;;23.60;57.30;;;;;;6245530;28;20037;-70
2021/08/31 03:44:48;;;;;;;1.20;1.10;;;23.60;57.30;;;;;;6245270;28;20041;-70
2021/08/31 03:47:48;;;;;;;1.58;1.17;;;23.60;57.30;;;;;;6243499;28;20032;-70
2021/08/31 03:50:49;;;;;;;1.20;1.10;;;23.60;57.30;;;;;;6244775;28;20029;-70
2021/08/31 03:53:49;;;;;;;1.45;1.15;;;23.60;57.30;;;;;;6245745;28;20056;-70
2021/08/31 03:56:50;;;;;;;1.23;1.13;;;23.60;57.30;;;;;;6245140;28;20885;-70
2021/08/31 04:00:41;;;;;;;1.05;0.82;;;23.60;57.30;;;;;;6244901;28;20572;-70
2021/08/31 04:03:41;;;;;;;1.27;0.95;;;23.60;57.30;;;;;;6245073;28;20036;-70
2021/08/31 04:06:42;;;;;;;1.35;1.08;;;23.60;57.30;;;;;;6243736;28;20403;-70
2021/08/31 04:09:42;;;;;;;1.27;0.90;;;23.60;57.30;;;;;;6244764;28;20059;-71
2021/08/31 04:12:43;;;;;;;1.00;0.90;;;23.60;57.30;;;;;;6243345;28;20372;-70
2021/08/31 04:15:47;;;;;;;1.38;1.10;;;23.60;57.30;;;;;;6242685;28;20024;-70
2021/08/31 04:18:48;;;;;;;1.27;1.13;;;23.60;57.30;;;;;;6243463;28;20033;-70
2021/08/31 04:21:48;;;;;;;1.50;1.10;;;23.60;57.30;;;;;;6244362;28;20510;-71
2021/08/31 04:24:49;;;;;;;1.90;1.10;;;23.60;57.30;;;;;;6244216;28;20030;-71
2021/08/31 04:27:50;;;;;;;1.02;0.93;;;23.60;57.30;;;;;;6243305;28;20057;-70
2021/08/31 04:30:50;;;;;;;1.00;0.90;;;23.60;57.50;;;;;;6234533;28;20029;-70
2021/08/31 04:33:51;;;;;;;1.48;1.20;;;23.60;57.40;;;;;;6228588;28;20028;-70
2021/08/31 04:36:52;;;;;;;4.10;1.40;;;23.60;57.30;;;;;;6244323;28;20026;-70
2021/08/31 04:39:52;;;;;;;1.00;0.82;;;23.60;57.30;;;;;;6243477;28;20156;-70
2021/08/31 04:42:53;;;;;;;1.38;1.10;;;23.60;57.30;;;;;;6242724;28;20026;-70
2021/08/31 04:45:53;;;;;;;1.25;1.15;;;23.60;57.30;;;;;;6243542;28;20545;-70
2021/08/31 04:48:54;;;;;;;1.08;0.98;;;23.60;57.40;;;;;;6244532;28;20434;-70
2021/08/31 04:51:54;;;;;;;1.48;1.20;;;23.60;57.30;;;;;;6243509;28;20495;-70
2021/08/31 04:54:56;;;;;;;1.30;1.20;;;23.60;57.40;;;;;;6243608;28;20471;-71
2021/08/31 04:57:57;;;;;;;1.10;1.00;;;23.60;57.40;;;;;;6243775;28;20069;-70
2021/08/31 05:00:57;;;;;;;1.58;1.10;;;23.60;57.40;;;;;;6239161;28;20035;-70
2021/08/31 05:03:58;;;;;;;0.98;0.90;;;23.60;57.40;;;;;;6221581;28;20057;-70
2021/08/31 05:06:59;;;;;;;1.05;0.90;;;23.60;57.40;;;;;;6241561;28;20029;-70
2021/08/31 05:09:59;;;;;;;1.13;1.02;;;23.60;57.40;;;;;;6242876;28;20084;-70
2021/08/31 05:13:00;;;;;;;1.13;1.00;;;23.60;57.40;;;;;;6242027;28;20049;-70
2021/08/31 05:16:00;;;;;;;1.10;1.00;;;23.60;57.30;;;;;;6243582;28;20101;-71
2021/08/31 05:19:01;;;;;;;1.20;0.98;;;23.60;57.30;;;;;;6242154;28;20025;-70
2021/08/31 05:22:02;;;;;;;1.40;0.90;;;23.60;57.40;;;;;;6242477;28;20513;-70
2021/08/31 05:25:04;;;;;;;1.40;1.10;;;23.60;57.30;;;;;;6242264;28;20037;-70
2021/08/31 05:28:04;;;;;;;1.30;1.17;;;23.60;57.30;;;;;;6233125;28;20033;-70
2021/08/31 05:31:05;;;;;;;1.60;1.30;;;23.60;57.30;;;;;;6223956;28;20017;-70
2021/08/31 05:34:06;;;;;;;1.23;1.02;;;23.60;57.30;;;;;;6241107;28;20071;-70
2021/08/31 05:37:06;;;;;;;1.25;1.15;;;23.60;57.30;;;;;;6242388;28;20036;-70
2021/08/31 05:40:08;;;;;;;1.38;1.23;;;23.60;57.30;;;;;;6241305;28;20037;-70
2021/08/31 05:43:08;;;;;;;1.50;1.20;;;23.60;57.30;;;;;;6232791;28;20030;-70
2021/08/31 05:46:09;;;;;;;2.15;1.15;;;23.60;57.30;;;;;;6222167;28;20040;-70
2021/08/31 05:49:09;;;;;;;1.35;1.10;;;23.60;57.20;;;;;;6240804;28;20088;-70
2021/08/31 05:52:12;;;;;;;1.10;1.00;;;23.60;57.20;;;;;;6240436;28;20022;-70
2021/08/31 05:55:13;;;;;;;1.10;1.00;;;23.60;57.20;;;;;;6242207;28;20017;-70
2021/08/31 05:58:14;;;;;;;1.50;1.02;;;23.60;57.20;;;;;;6240613;28;20060;-70
2021/08/31 06:01:15;;;;;;;1.30;1.08;;;23.60;57.20;;;;;;6232742;28;20042;-70
2021/08/31 06:04:16;;;;;;;1.08;0.98;;;23.60;57.20;;;;;;6243083;28;20120;-70
2021/08/31 06:07:17;;;;;;;2.28;1.08;;;23.60;57.20;;;;;;6244526;28;20032;-71
2021/08/31 06:10:18;;;;;;;1.25;1.10;;;23.60;57.20;;;;;;6244590;28;20025;-71
2021/08/31 06:13:19;;;;;;;1.15;1.00;;;23.60;57.20;;;;;;6244583;28;20053;-70
2021/08/31 06:16:19;;;;;;;1.00;0.90;;;23.60;57.20;;;;;;6244780;28;20025;-70
2021/08/31 06:19:20;;;;;;;1.70;1.02;;;23.60;57.30;;;;;;6243871;28;20225;-70
2021/08/31 06:22:20;;;;;;;1.40;1.20;;;23.60;57.30;;;;;;6244274;28;20029;-71
2021/08/31 06:25:21;;;;;;;1.38;1.00;;;23.60;57.30;;;;;;6243057;28;20036;-71
2021/08/31 06:28:22;;;;;;;1.63;1.30;;;23.60;57.20;;;;;;6244102;28;20057;-70
2021/08/31 06:31:22;;;;;;;1.63;1.30;;;23.60;57.20;;;;;;6242933;28;20036;-70
2021/08/31 06:34:23;;;;;;;1.85;1.30;;;23.60;57.30;;;;;;6244156;28;20092;-70
2021/08/31 06:37:23;;;;;;;2.00;1.17;;;23.60;57.30;;;;;;6242451;28;20534;-70
2021/08/31 06:40:24;;;;;;;1.05;0.93;;;23.60;57.20;;;;;;6244139;28;20505;-70
2021/08/31 06:43:25;;;;;;;1.15;0.93;;;23.60;57.30;;;;;;6243435;28;20490;-70
2021/08/31 06:46:25;;;;;;;1.48;1.25;;;23.60;57.30;;;;;;6242700;28;20113;-70
2021/08/31 06:49:26;;;;;;;1.20;1.08;;;23.60;57.20;;;;;;6243754;28;20261;-70
2021/08/31 06:52:26;;;;;;;0.93;0.90;;;23.60;57.20;;;;;;6243500;28;20029;-70
2021/08/31 06:55:27;;;;;;;1.77;1.40;;;23.60;57.20;;;;;;6242654;28;20542;-70
2021/08/31 06:58:28;;;;;;;1.50;1.08;;;23.60;57.20;;;;;;6242028;28;20059;-70
2021/08/31 07:01:28;;;;;;;1.00;0.90;;;23.60;57.20;;;;;;6243898;28;20396;-70
2021/08/31 07:04:29;;;;;;;1.33;1.17;;;23.60;57.20;;;;;;6243270;28;20031;-71
2021/08/31 07:07:29;;;;;;;1.38;1.10;;;23.60;57.20;;;;;;6242615;28;20021;-70
2021/08/31 07:10:30;;;;;;;1.88;1.15;;;23.60;57.10;;;;;;6244060;28;20057;-70
2021/08/31 07:13:31;;;;;;;1.60;1.25;;;23.60;57.00;;;;;;6239904;28;20022;-70
2021/08/31 07:16:33;;;;;;;1.17;1.08;;;23.60;57.10;;;;;;6219240;28;20057;-70
2021/08/31 07:19:33;;;;;;;1.63;1.30;;;23.60;57.10;;;;;;6225144;28;20416;-71
2021/08/31 07:22:34;;;;;;;1.02;0.90;;;23.60;57.10;;;;;;6217949;28;20104;-70
2021/08/31 07:25:35;;;;;;;1.73;1.40;;;23.60;57.10;;;;;;6242363;28;20021;-71
2021/08/31 07:28:35;;;;;;;1.20;1.08;;;23.60;57.10;;;;;;6243981;28;20021;-70
2021/08/31 07:31:36;;;;;;;1.30;1.15;;;23.60;57.20;;;;;;6241952;28;20032;-70
2021/08/31 07:34:38;;;;;;;2.00;1.25;;;23.60;57.10;;;;;;6243680;28;20095;-70
2021/08/31 07:37:39;;;;;;;1.98;1.40;;;23.60;57.10;;;;;;6243342;28;20022;-70
2021/08/31 07:40:40;;;;;;;1.25;1.15;;;23.60;57.10;;;;;;6243197;28;20033;-70
2021/08/31 07:43:41;;;;;;;1.40;1.20;;;23.60;57.10;;;;;;6242813;28;20030;-70
2021/08/31 07:46:46;;;;;;;1.80;1.20;;;23.60;57.10;;;;;;6242168;28;20495;-70
2021/08/31 07:49:47;;;;;;;1.13;0.93;;;23.60;57.20;;;;;;6243865;28;20014;-70
2021/08/31 07:52:47;;;;;;;1.13;0.90;;;23.60;57.10;;;;;;6238918;28;20376;-70
2021/08/31 07:55:48;;;;;;;1.35;1.00;;;23.60;57.20;;;;;;6242629;28;20479;-70
2021/08/31 07:58:50;;;;;;;1.30;1.10;;;23.60;57.10;;;;;;6241855;28;20036;-69
2021/08/31 08:01:51;;;;;;;1.20;1.10;;;23.60;57.20;;;;;;6242882;28;20029;-69
2021/08/31 08:04:58;;;;;;;1.63;1.15;;;23.60;57.20;;;;;;6246176;28;20494;-69
2021/08/31 08:07:58;;;;;;;1.17;1.02;;;23.60;57.20;;;;;;6246488;28;20033;-69
2021/08/31 08:10:59;;;;;;;1.33;1.15;;;23.60;57.10;;;;;;6246242;28;20103;-69
2021/08/31 08:14:00;;;;;;;1.08;0.98;;;23.60;57.20;;;;;;6248231;28;20021;-69
2021/08/31 08:17:00;;;;;;;2.10;1.40;;;23.60;57.20;;;;;;6245875;28;20052;-69
2021/08/31 08:20:01;;;;;;;1.25;1.15;;;23.60;57.20;;;;;;6245739;28;20037;-69
2021/08/31 08:23:02;;;;;;;1.75;1.17;;;23.60;57.20;;;;;;6245710;28;20025;-69
2021/08/31 08:26:02;;;;;;;1.95;1.23;;;23.60;57.20;;;;;;6246628;28;20022;-69
2021/08/31 08:29:04;;;;;;;1.30;1.17;;;23.60;57.20;;;;;;6246593;28;20099;-69
2021/08/31 08:32:10;;;;;;;1.10;0.82;;;23.60;57.10;;;;;;6246984;28;20403;-69
2021/08/31 08:35:12;;;;;;;1.30;1.20;;;23.60;57.20;;;;;;6245358;28;20060;-69
2021/08/31 08:38:13;;;;;;;1.40;1.30;;;23.60;57.20;;;;;;6245760;28;20070;-69
2021/08/31 08:41:13;;;;;;;1.77;1.30;;;23.60;57.20;;;;;;6246386;28;20035;-69
2021/08/31 08:44:14;;;;;;;1.40;1.30;;;23.60;57.20;;;;;;6245320;28;20438;-69
2021/08/31 08:47:14;;;;;;;1.25;1.08;;;23.60;57.20;;;;;;6246305;28;20506;-69
2021/08/31 08:50:15;;;;;;;1.45;1.00;;;23.60;57.20;;;;;;6245176;28;20037;-69
2021/08/31 08:53:16;;;;;;;1.70;1.40;;;23.60;57.10;;;;;;6245095;28;20534;-69
2021/08/31 08:56:18;;;;;;;1.55;1.30;;;23.60;57.20;;;;;;6237308;28;20060;-69
2021/08/31 08:59:19;;;;;;;1.20;1.10;;;23.60;57.30;;;;;;6220637;28;20029;-69
2021/08/31 09:02:38;;;;;;;2.47;1.45;;;23.60;57.20;;;;;;6240874;28;20034;-69
2021/08/31 09:05:38;;;;;;;1.23;1.13;;;23.60;57.20;;;;;;6244854;28;20057;-70
2021/08/31 09:09:00;;;;;;;1.77;1.15;;;23.60;57.30;;;;;;6246766;28;20028;-70
2021/08/31 09:12:01;;;;;;;1.70;1.38;;;23.60;57.20;;;;;;6236640;28;20026;-69
2021/08/31 09:15:26;;;;;;;1.30;1.20;;;23.60;57.20;;;;;;6220055;28;20650;-71
2021/08/31 09:18:27;;;;;;;1.63;1.30;;;23.60;57.20;;;;;;6219300;28;20527;-69
2021/08/31 09:21:29;;;;;;;1.70;1.40;;;23.60;57.20;;;;;;6229814;28;20029;-69
2021/08/31 09:24:30;;;;;;;1.40;1.20;;;23.60;57.20;;;;;;6245472;28;20029;-69
2021/08/31 09:27:33;;;;;;;1.30;1.20;;;23.60;57.20;;;;;;6247187;28;20060;-71
2021/08/31 09:30:34;;;;;;;1.33;1.10;;;23.60;57.30;;;;;;6246480;28;20028;-70
2021/08/31 09:33:43;;;;;;;1.40;1.30;;;23.60;57.20;;;;;;6245582;28;20025;-69
2021/08/31 09:36:44;;;;;;;1.27;1.10;;;23.60;57.20;;;;;;6245468;28;20045;-69
2021/08/31 09:39:45;;;;;;;1.30;1.20;;;23.60;57.20;;;;;;6245734;28;20534;-69
2021/08/31 09:43:00;;;;;;;1.65;1.30;;;23.60;57.20;;;;;;6243548;28;20060;-69
2021/08/31 09:46:01;;;;;;;2.17;1.33;;;23.60;57.30;;;;;;6244887;28;20108;-69
2021/08/31 09:49:17;;;;;;;1.77;1.20;;;23.60;57.30;;;;;;6243571;28;20030;-69
2021/08/31 09:52:17;;;;;;;1.33;1.15;;;23.60;57.30;;;;;;6244811;28;20025;-69
2021/08/31 09:55:20;;;;;;;2.03;1.30;;;23.60;57.30;;;;;;6244761;28;20365;-69
2021/08/31 09:58:24;;;;;;;1.30;1.20;;;23.60;57.30;;;;;;6244686;28;20050;-69
2021/08/31 10:01:24;;;;;;;1.70;1.30;;;23.60;57.30;;;;;;6244621;28;20025;-70
2021/08/31 10:04:25;;;;;;;1.65;1.20;;;23.60;57.30;;;;;;6244730;28;20033;-69
2021/08/31 10:07:26;;;;;;;2.33;1.50;;;23.60;57.30;;;;;;6244672;28;20037;-69
2021/08/31 10:10:28;;;;;;;1.45;1.25;;;23.60;57.30;;;;;;6244675;28;20033;-69
2021/08/31 10:13:30;;;;;;;1.40;1.20;;;23.60;57.30;;;;;;6242903;28;20064;-69
2021/08/31 10:16:33;;;;;;;1.85;1.20;;;23.60;57.30;;;;;;6244339;28;20025;-69
2021/08/31 10:19:35;;;;;;;1.40;1.10;;;23.60;57.30;;;;;;6244429;28;20053;-69
2021/08/31 10:22:36;;;;;;;1.60;1.30;;;23.60;57.30;;;;;;6244484;28;20033;-69
2021/08/31 10:25:37;;;;;;;1.38;1.27;;;23.60;57.30;;;;;;6243649;28;20025;-69
2021/08/31 10:28:37;;;;;;;1.52;1.33;;;23.60;57.40;;;;;;6243133;28;20061;-69
2021/08/31 10:31:38;;;;;;;1.88;1.33;;;23.60;57.40;;;;;;6244308;28;20136;-69
2021/08/31 10:34:42;;;;;;;1.75;1.50;;;23.60;57.40;;;;;;6243611;28;20511;-70
2021/08/31 10:37:47;;;;;;;1.65;1.20;;;23.60;57.40;;;;;;6244210;28;20104;-69
2021/08/31 10:40:47;;;;;;;1.45;1.10;;;23.60;57.40;;;;;;6242780;28;20051;-70
2021/08/31 10:43:53;;;;;;;2.10;1.33;;;23.60;57.40;;;;;;6244377;28;20079;-70
2021/08/31 10:46:56;;;;;;;1.45;1.10;;;23.60;57.40;;;;;;6242632;28;20371;-70
2021/08/31 10:49:57;;;;;;;1.73;1.40;;;23.60;57.40;;;;;;6244178;28;20033;-69
2021/08/31 10:53:06;;;;;;;1.73;1.15;;;23.60;57.40;;;;;;6243727;28;20024;-69
2021/08/31 10:56:27;;;;;;;1.67;1.30;;;23.60;57.40;;;;;;6243979;28;20091;-69
2021/08/31 10:59:34;;;;;;;1.40;1.30;;;23.60;57.40;;;;;;6242319;28;20497;-69
2021/08/31 11:02:58;;;;;;;1.52;1.27;;;23.60;57.40;;;;;;6242264;28;20025;-69
2021/08/31 11:06:26;;;;;;;1.40;1.20;;;23.60;57.40;;;;;;6242596;28;20513;-70
2021/08/31 11:09:27;;;;;;;1.48;1.38;;;23.60;57.50;;;;;;6243778;28;20037;-69
2021/08/31 11:12:28;;;;;;;1.83;1.35;;;23.60;57.40;;;;;;6243352;28;20630;-69
2021/08/31 11:15:29;;;;;;;1.40;1.20;;;23.60;57.40;;;;;;6242125;28;20121;-69
2021/08/31 11:18:34;;;;;;;1.77;1.25;;;23.60;57.50;;;;;;6243545;28;20033;-69
2021/08/31 11:21:46;;;;;;;1.58;1.20;;;23.60;57.50;;;;;;6242970;28;20029;-71
2021/08/31 11:24:54;;;;;;;1.00;0.90;;;23.60;57.50;;;;;;6242562;28;20121;-70
2021/08/31 11:28:03;;;;;;;1.55;1.35;;;23.60;57.50;;;;;;6234217;28;20026;-71
2021/08/31 11:31:14;;;;;;;1.17;1.08;;;23.60;57.40;;;;;;6243213;28;20100;-71
2021/08/31 11:34:15;;;;;;;1.65;1.33;;;23.60;57.50;;;;;;6242443;28;20534;-71
2021/08/31 11:37:16;;;;;;;2.92;1.52;;;23.60;57.50;;;;;;6244678;28;20025;-72
2021/08/31 11:40:25;;;;;;;1.85;1.45;;;23.50;57.80;;;;;;6249375;28;20044;-71
2021/08/31 11:43:30;;;;;;;3.22;1.90;;;23.50;57.80;;;;;;6238714;28;20030;-71
2021/08/31 11:46:33;;;;;;;2.50;2.00;;;23.50;57.90;;;;;;6250698;28;20025;-71
2021/08/31 11:49:33;;;;;;;3.95;2.80;;;23.40;57.60;;;;;;6247777;28;20536;-71
2021/08/31 11:52:34;;;;;;;6.70;2.88;;;23.50;57.30;;;;;;6247949;28;20021;-72
2021/08/31 11:55:34;;;;;;;6.15;3.25;;;23.40;57.60;;;;;;6247046;28;20021;-71
2021/08/31 11:58:43;;;;;;;3.55;2.55;;;23.40;57.30;;;;;;6246888;28;20049;-72
2021/08/31 12:01:43;;;;;;;4.57;3.20;;;23.40;57.40;;;;;;6237495;28;20053;-72
2021/08/31 12:04:58;;;;;;;5.82;3.13;;;23.40;57.40;;;;;;6243507;28;20452;-74
2021/08/31 12:07:59;;;;;;;6.50;3.50;;;23.40;56.10;;;;;;6245310;28;20034;-74
2021/08/31 12:11:00;;;;;;;4.55;3.28;;;23.50;56.90;;;;;;6244009;28;20063;-72
2021/08/31 12:14:00;;;;;;;6.07;3.80;;;23.50;57.30;;;;;;6242660;28;20021;-73
2021/08/31 12:17:01;;;;;;;9.48;3.88;;;23.40;57.00;;;;;;6237337;28;20053;-72
2021/08/31 12:20:14;;;;;;;8.43;3.90;;;23.40;57.30;;;;;;6244429;28;20492;-71
2021/08/31 12:23:14;;;;;;;5.85;3.75;;;23.40;57.20;;;;;;6243967;28;20544;-74
2021/08/31 12:26:35;;;;;;;7.53;3.88;;;23.40;57.20;;;;;;6246854;28;20025;-73
2021/08/31 12:29:52;;;;;;;5.35;3.97;;;23.40;57.00;;;;;;6246709;28;20022;-73
2021/08/31 12:32:54;;;;;;;6.32;4.43;;;23.40;56.80;;;;;;6242700;28;20096;-73
2021/08/31 12:36:10;;;;;;;6.50;3.92;;;23.40;56.80;;;;;;6246788;28;20029;-73
2021/08/31 12:39:21;;;;;;;;;;;23.40;56.80;;;;;;6244874;28;20398;-72
2021/08/31 12:42:22;;;;;;;12.23;4.55;;;23.40;56.20;;;;;;6244446;28;19905;-73
2021/08/31 12:45:27;;;;;;;14.45;4.82;;;23.40;55.90;;;;;;6245731;28;20032;-71
2021/08/31 12:48:45;;;;;;;;;;;23.50;55.80;;;;;;6243972;28;20429;-72
2021/08/31 12:51:48;;;;;;;12.35;4.35;;;23.50;55.70;;;;;;6244151;28;19915;-73
2021/08/31 12:54:49;;;;;;;12.15;4.32;;;23.60;55.90;;;;;;6244303;28;20035;-72
2021/08/31 12:57:50;;;;;;;21.67;5.65;;;23.60;56.00;;;;;;6238427;28;20108;-72
2021/08/31 13:01:04;;;;;;;10.70;5.75;;;23.60;56.60;;;;;;6245861;28;20116;-73
2021/08/31 13:04:12;;;;;;;12.90;4.50;;;23.60;56.70;;;;;;6235413;28;20026;-73
2021/08/31 13:07:15;;;;;;;14.77;4.80;;;23.60;56.30;;;;;;6238846;28;20314;-71
2021/08/31 13:10:20;;;;;;;12.77;4.22;;;23.60;56.40;;;;;;6245759;28;20399;-73
2021/08/31 13:13:32;;;;;;;7.40;3.92;;;23.60;56.50;;;;;;6237832;28;20050;-73
2021/08/31 13:16:33;;;;;;;12.55;4.13;;;23.60;56.50;;;;;;6248766;28;20490;-73
2021/08/31 13:19:34;;;;;;;13.00;4.35;;;23.60;56.50;;;;;;6245344;28;20030;-72
2021/08/31 13:22:34;;;;;;;7.88;4.18;;;23.60;56.50;;;;;;6246969;28;20477;-72
2021/08/31 13:25:35;;;;;;;7.50;3.72;;;23.60;56.50;;;;;;6246523;28;20127;-73
2021/08/31 13:28:36;;;;;;;9.63;4.20;;;23.60;56.60;;;;;;6245764;28;20080;-73
2021/08/31 13:31:37;;;;;;;5.85;3.70;;;23.60;56.60;;;;;;6245398;28;20470;-73
2021/08/31 13:34:38;;;;;;;9.57;3.85;;;23.60;56.60;;;;;;6247090;28;20022;-72
2021/08/31 13:37:38;;;;;;;5.57;3.35;;;23.60;56.60;;;;;;6246306;28;20554;-73
2021/08/31 13:40:40;;;;;;;5.80;3.70;;;23.60;56.60;;;;;;6246725;28;20030;-73
2021/08/31 13:43:40;;;;;;;5.20;3.38;;;23.60;56.60;;;;;;6237564;28;20030;-73
2021/08/31 13:46:41;;;;;;;5.07;3.38;;;23.60;56.60;;;;;;6226130;28;20072;-73
2021/08/31 13:49:41;;;;;;;6.63;3.70;;;23.60;56.70;;;;;;6245429;28;20036;-72
2021/08/31 13:52:42;;;;;;;6.45;3.35;;;23.60;56.70;;;;;;6244700;28;20136;-72
2021/08/31 13:55:43;;;;;;;6.85;4.07;;;23.60;56.70;;;;;;6244668;28;20589;-72
2021/08/31 13:58:43;;;;;;;6.57;3.67;;;23.60;56.70;;;;;;6244445;28;20071;-72
2021/08/31 14:01:44;;;;;;;4.88;3.53;;;23.60;56.70;;;;;;6245154;28;20034;-74
2021/08/31 14:04:44;;;;;;;6.25;3.58;;;23.60;56.60;;;;;;6244932;28;20121;-74
2021/08/31 14:07:45;;;;;;;5.57;3.30;;;23.60;56.70;;;;;;6245927;28;20104;-73
2021/08/31 14:10:46;;;;;;;4.93;3.13;;;23.60;56.60;;;;;;6245912;28;20026;-74
2021/08/31 14:13:47;;;;;;;5.38;3.47;;;23.60;56.60;;;;;;6245514;28;20022;-73
2021/08/31 14:16:48;;;;;;;5.50;3.47;;;23.60;56.70;;;;;;6246140;28;20068;-73
2021/08/31 14:19:48;;;;;;;8.48;3.28;;;23.60;56.70;;;;;;6245394;28;20033;-71
2021/08/31 14:22:49;;;;;;;7.18;3.15;;;23.60;56.60;;;;;;6236567;28;20037;-73
2021/08/31 14:25:50;;;;;;;6.35;3.00;;;23.60;56.70;;;;;;6221422;28;20022;-74
2021/08/31 14:28:51;;;;;;;4.82;2.90;;;23.60;56.70;;;;;;6236587;28;20474;-72
2021/08/31 14:31:52;;;;;;;4.68;3.33;;;23.60;56.60;;;;;;6243467;28;20406;-73
2021/08/31 14:34:52;;;;;;;4.60;3.17;;;23.60;56.70;;;;;;6243820;28;20059;-72
2021/08/31 14:37:53;;;;;;;5.65;3.10;;;23.60;56.60;;;;;;6239157;28;20058;-73
2021/08/31 14:40:54;;;;;;;4.97;2.88;;;23.60;56.60;;;;;;6219443;28;20133;-73
2021/08/31 14:43:54;;;;;;;5.43;3.00;;;23.60;56.60;;;;;;6233689;28;20025;-73
2021/08/31 14:46:55;;;;;;;5.47;2.90;;;23.60;56.60;;;;;;6244913;28;20087;-73
2021/08/31 14:49:55;;;;;;;5.53;3.00;;;23.60;56.60;;;;;;6243400;28;20316;-73
2021/08/31 14:52:56;;;;;;;4.13;2.90;;;23.60;56.70;;;;;;6238783;28;20028;-73
2021/08/31 14:55:57;;;;;;;3.67;2.90;;;23.60;56.60;;;;;;6220734;28;20025;-73
2021/08/31 14:58:57;;;;;;;5.75;3.17;;;23.50;56.50;;;;;;6232682;28;20100;-73
2021/08/31 15:01:58;;;;;;;6.40;2.90;;;23.60;56.60;;;;;;6245164;28;20041;-73
2021/08/31 15:04:58;;;;;;;3.90;2.85;;;23.60;56.60;;;;;;6243345;28;20072;-73
2021/08/31 15:07:59;;;;;;;3.78;2.67;;;23.60;56.60;;;;;;6244732;28;20033;-73
2021/08/31 15:11:03;;;;;;;3.22;2.45;;;23.60;56.50;;;;;;6244920;28;20057;-73
2021/08/31 15:14:05;;;;;;;3.95;2.78;;;23.60;56.60;;;;;;6252241;28;20537;-73
2021/08/31 15:17:06;;;;;;;2.92;2.47;;;23.60;56.60;;;;;;6252913;28;20052;-73
2021/08/31 15:20:07;;;;;;;4.28;2.60;;;23.60;56.60;;;;;;6251276;28;20380;-74
2021/08/31 15:23:07;;;;;;;3.45;2.60;;;23.60;56.50;;;;;;6252703;28;20033;-74
2021/08/31 15:26:08;;;;;;;3.17;2.22;;;23.60;56.60;;;;;;6251247;28;20505;-74
2021/08/31 15:29:11;;;;;;;4.80;2.50;;;23.50;56.50;;;;;;6251258;28;20402;-73
2021/08/31 15:32:11;;;;;;;3.17;2.70;;;23.50;56.50;;;;;;6252923;28;20109;-72
2021/08/31 15:35:13;;;;;;;3.38;2.25;;;23.50;56.50;;;;;;6252099;28;20029;-72
2021/08/31 15:38:13;;;;;;;3.78;2.42;;;23.60;56.60;;;;;;6253164;28;20443;-74
2021/08/31 15:41:14;;;;;;;3.97;2.75;;;23.60;56.70;;;;;;6229624;28;20036;-73
2021/08/31 15:44:14;;;;;;;3.83;2.53;;;23.60;56.70;;;;;;6232673;28;20063;-74
2021/08/31 15:47:15;;;;;;;3.42;2.47;;;23.50;56.60;;;;;;6250735;28;20336;-73
2021/08/31 15:50:16;;;;;;;3.40;2.45;;;23.50;56.70;;;;;;6250909;28;20021;-72